createdAt,value
2022-10-14T00:01:33.284Z,3.67
2022-10-14T00:06:34.632Z,2.60
2022-10-14T00:11:37.070Z,3.05
2022-10-14T00:16:39.747Z,3.03
2022-10-14T00:21:44.118Z,3.08
2022-10-14T00:26:45.817Z,2.75
2022-10-14T00:31:47.441Z,3.15
2022-10-14T00:36:49.894Z,3.50
2022-10-14T00:46:55.008Z,4.22
2022-10-14T00:52:00.077Z,4.10
2022-10-14T00:57:01.791Z,3.62
2022-10-14T01:02:03.389Z,3.80
2022-10-14T01:07:32.203Z,4.28
2022-10-14T01:14:23.439Z,3.58
2022-10-14T01:20:26.365Z,3.75
2022-10-14T01:27:13.176Z,3.20
2022-10-14T01:32:28.677Z,3.92
2022-10-14T01:37:32.983Z,4.30
2022-10-14T01:42:36.422Z,4.82
2022-10-14T01:47:39.049Z,5.40
2022-10-14T01:52:46.435Z,4.80
2022-10-14T01:57:50.641Z,4.68
2022-10-14T02:02:51.542Z,4.85
2022-10-14T02:08:01.032Z,6.32
2022-10-14T02:18:37.795Z,6.70
2022-10-14T02:23:45.370Z,7.95
2022-10-14T02:28:47.838Z,6.60
2022-10-14T02:33:55.285Z,6.50
2022-10-14T02:39:00.213Z,6.57
2022-10-14T02:44:01.649Z,5.85
2022-10-14T02:49:02.682Z,6.20
2022-10-14T02:54:03.524Z,6.47
2022-10-14T02:59:05.037Z,8.13
2022-10-14T03:04:06.132Z,7.28
2022-10-14T03:09:07.381Z,7.70
2022-10-14T03:19:12.018Z,9.57
2022-10-14T03:24:16.943Z,10.55
2022-10-14T03:29:18.133Z,10.95
2022-10-14T03:34:29.676Z,12.05
2022-10-14T03:39:39.199Z,12.57
2022-10-14T03:44:42.036Z,12.55
2022-10-14T03:49:49.729Z,10.27
2022-10-14T03:54:58.572Z,11.63
2022-10-14T04:00:00.304Z,13.10
2022-10-14T04:05:16.767Z,13.32
2022-10-14T04:10:19.125Z,14.18
2022-10-14T04:15:24.517Z,12.52
2022-10-14T04:20:42.616Z,14.60
2022-10-14T04:25:43.883Z,15.85
2022-10-14T04:30:45.391Z,13.30
2022-10-14T04:36:00.112Z,14.05
2022-10-14T04:41:06.113Z,14.00
2022-10-14T04:46:08.202Z,14.03
2022-10-14T04:51:09.691Z,13.82
2022-10-14T04:56:35.101Z,15.77
2022-10-14T05:01:37.180Z,16.35
2022-10-14T05:06:38.336Z,16.40
2022-10-14T05:11:40.426Z,18.73
2022-10-14T05:16:41.575Z,17.92
2022-10-14T05:21:43.094Z,20.37
2022-10-14T05:26:48.410Z,19.30
2022-10-14T05:31:49.636Z,19.77
2022-10-14T05:37:26.198Z,20.20
2022-10-14T05:42:27.310Z,19.08
2022-10-14T05:47:31.192Z,20.60
2022-10-14T05:52:36.204Z,21.23
2022-10-14T05:57:45.031Z,23.52
2022-10-14T06:07:51.246Z,23.57
2022-10-14T06:12:52.006Z,26.58
2022-10-14T06:17:54.270Z,24.80
2022-10-14T06:22:55.357Z,23.58
2022-10-14T06:28:02.646Z,25.92
2022-10-14T06:33:03.486Z,23.98
2022-10-14T06:38:04.412Z,29.05
2022-10-14T06:43:05.655Z,21.33
2022-10-14T06:48:06.786Z,26.12
2022-10-14T06:53:07.989Z,26.87
2022-10-14T06:58:08.983Z,27.27
2022-10-14T07:03:09.759Z,28.52
2022-10-14T07:08:14.439Z,25.30
2022-10-14T07:13:16.406Z,27.33
2022-10-14T07:18:18.314Z,29.87
2022-10-14T07:23:19.090Z,27.00
2022-10-14T07:28:20.586Z,29.90
2022-10-14T07:33:21.458Z,31.80
2022-10-14T07:38:22.370Z,29.05
2022-10-14T07:43:23.813Z,30.45
2022-10-14T07:48:32.789Z,29.45
2022-10-14T07:53:39.628Z,31.23
2022-10-14T07:58:44.332Z,31.00
2022-10-14T08:03:46.898Z,32.97
2022-10-14T08:08:48.038Z,31.63
2022-10-14T08:13:49.108Z,30.73
2022-10-14T08:18:50.868Z,33.63
2022-10-14T08:23:54.160Z,33.53
2022-10-14T08:28:54.989Z,33.70
2022-10-14T08:33:56.378Z,33.75
2022-10-14T08:38:57.700Z,33.20
2022-10-14T08:45:08.517Z,32.90
2022-10-14T08:51:17.860Z,32.47
2022-10-14T08:56:19.853Z,33.35
2022-10-14T09:01:36.401Z,32.63
2022-10-14T09:06:40.457Z,29.65
2022-10-14T09:11:45.982Z,29.20
2022-10-14T09:16:51.839Z,29.40
2022-10-14T09:21:55.251Z,29.42
2022-10-14T09:27:15.865Z,27.75
2022-10-14T09:32:39.029Z,26.55
2022-10-14T09:37:39.756Z,19.52
2022-10-14T09:43:24.175Z,22.33
2022-10-14T09:48:50.497Z,22.23
2022-10-14T09:54:01.650Z,23.12
2022-10-14T09:59:04.387Z,22.52
2022-10-14T10:06:16.063Z,22.90
2022-10-14T10:11:36.636Z,23.02
2022-10-14T10:16:37.571Z,20.17
2022-10-14T10:21:38.363Z,20.95
2022-10-14T10:26:39.109Z,19.92
2022-10-14T10:31:54.677Z,17.48
2022-10-14T10:37:03.626Z,14.23
2022-10-14T10:42:26.382Z,15.60
2022-10-14T10:50:15.934Z,16.50
2022-10-14T10:57:05.740Z,16.20
2022-10-14T11:02:55.169Z,13.77
2022-10-14T11:08:20.998Z,13.93
2022-10-14T11:13:38.226Z,13.38
2022-10-14T11:18:49.767Z,11.45
2022-10-14T11:24:05.706Z,8.60
2022-10-14T11:36:03.909Z,7.22
2022-10-14T11:41:56.974Z,7.47
2022-10-14T11:47:04.467Z,8.27
2022-10-14T11:52:15.873Z,8.05
2022-10-14T11:57:40.989Z,7.55
2022-10-14T12:03:09.466Z,6.90
2022-10-14T12:08:35.988Z,5.68
2022-10-14T12:13:48.180Z,5.50
2022-10-14T12:18:53.504Z,5.50
2022-10-14T12:24:16.492Z,5.35
2022-10-14T12:29:28.385Z,4.00
2022-10-14T12:34:40.537Z,3.08
2022-10-14T12:39:41.623Z,2.80
2022-10-14T12:44:47.798Z,2.70
2022-10-14T12:49:55.318Z,3.42
2022-10-14T12:54:59.401Z,2.90
2022-10-14T13:00:26.933Z,2.37
2022-10-14T13:05:38.069Z,2.40
2022-10-14T13:14:15.303Z,2.60
2022-10-14T13:19:40.477Z,2.17
2022-10-14T13:24:41.392Z,1.70
2022-10-14T13:30:15.689Z,1.90
2022-10-14T13:35:31.584Z,1.90
2022-10-14T13:40:38.505Z,2.12
2022-10-14T13:45:43.442Z,1.30
2022-10-14T13:50:50.018Z,1.25
2022-10-14T13:55:54.491Z,1.30
2022-10-14T14:01:06.388Z,1.60
2022-10-14T14:06:14.180Z,1.17
2022-10-14T14:11:23.954Z,0.90
2022-10-14T14:16:39.383Z,1.08
2022-10-14T14:21:40.323Z,0.95
2022-10-14T14:26:41.123Z,7.25
2022-10-14T14:43:03.003Z,3.62
2022-10-14T14:48:06.890Z,2.40
2022-10-14T14:53:20.054Z,0.98
2022-10-14T14:58:35.308Z,10.63
2022-10-14T15:04:12.873Z,4.00
2022-10-14T15:09:22.184Z,3.75
2022-10-14T15:14:58.871Z,6.80
2022-10-14T15:20:28.634Z,8.57
2022-10-14T15:25:30.858Z,3.30
2022-10-14T15:30:54.869Z,5.50
2022-10-14T15:36:01.148Z,3.72
2022-10-14T15:41:03.835Z,2.60
2022-10-14T15:46:24.091Z,2.85
2022-10-14T15:51:32.746Z,2.72
2022-10-14T15:56:33.613Z,2.10
2022-10-14T16:01:37.457Z,1.50
2022-10-14T16:06:38.437Z,1.55
2022-10-14T16:11:39.621Z,3.45
2022-10-14T16:16:45.121Z,2.12
2022-10-14T16:21:49.060Z,2.20
2022-10-14T16:26:50.591Z,3.00
2022-10-14T16:31:51.641Z,8.10
2022-10-14T16:36:52.832Z,2.33
2022-10-14T16:41:55.013Z,5.95
2022-10-14T16:47:15.842Z,3.60
2022-10-14T16:52:17.910Z,4.80
2022-10-14T16:57:18.650Z,7.75
2022-10-14T17:02:20.666Z,5.22
2022-10-14T17:07:21.821Z,3.95
2022-10-14T17:12:23.270Z,3.70
2022-10-14T17:17:24.918Z,3.70
2022-10-14T17:22:26.092Z,3.72
2022-10-14T17:27:26.968Z,3.42
2022-10-14T17:32:27.777Z,3.90
2022-10-14T17:37:29.970Z,3.70
2022-10-14T17:42:30.713Z,3.70
2022-10-14T17:47:32.615Z,3.40
2022-10-14T17:52:33.522Z,4.35
2022-10-14T17:57:34.327Z,4.28
2022-10-14T18:02:35.160Z,3.70
2022-10-14T18:07:36.937Z,3.85
2022-10-14T18:12:40.000Z,3.75
2022-10-14T18:22:42.071Z,4.15
2022-10-14T18:27:43.376Z,4.57
2022-10-14T18:32:44.146Z,4.07
2022-10-14T18:37:47.365Z,4.12
2022-10-14T18:42:49.533Z,4.62
2022-10-14T18:47:51.426Z,3.93
2022-10-14T18:52:52.183Z,2.92
2022-10-14T18:57:52.942Z,2.12
2022-10-14T19:02:53.685Z,1.55
2022-10-14T19:07:55.962Z,1.58
2022-10-14T19:12:56.791Z,1.30
2022-10-14T19:17:58.455Z,0.85
2022-10-14T19:22:59.180Z,1.05
2022-10-14T19:28:00.027Z,0.88
2022-10-14T19:33:00.922Z,2.28
2022-10-14T19:38:01.874Z,1.00
2022-10-14T19:43:02.700Z,1.23
2022-10-14T19:48:05.223Z,1.77
2022-10-14T19:53:05.983Z,1.10
2022-10-14T19:58:06.769Z,0.90
2022-10-14T20:03:07.566Z,3.03
2022-10-14T20:08:08.517Z,1.67
2022-10-14T20:13:09.338Z,11.15
2022-10-14T20:18:10.329Z,20.40
2022-10-14T20:23:11.092Z,22.42
2022-10-14T20:28:13.265Z,12.63
2022-10-14T20:33:14.275Z,4.25
2022-10-14T20:38:15.116Z,9.57
2022-10-14T20:43:15.994Z,2.15
2022-10-14T20:48:16.735Z,1.75
2022-10-14T20:53:18.057Z,2.60
2022-10-14T20:58:20.208Z,3.22
2022-10-14T21:03:20.953Z,5.30
2022-10-14T21:08:21.806Z,3.62
2022-10-14T21:13:22.666Z,4.30
2022-10-14T21:18:24.004Z,5.32
2022-10-14T21:23:24.816Z,6.22
2022-10-14T21:28:25.911Z,5.50
2022-10-14T21:33:26.755Z,4.35
2022-10-14T21:38:28.877Z,6.00
2022-10-14T21:43:31.895Z,5.25
2022-10-14T21:48:33.301Z,14.30
2022-10-14T21:53:34.404Z,3.83
2022-10-14T21:58:35.729Z,6.80
2022-10-14T22:03:37.621Z,4.65
2022-10-14T22:08:41.669Z,7.05
2022-10-14T22:13:42.589Z,4.62
2022-10-14T22:18:46.198Z,4.10
2022-10-14T22:23:48.570Z,4.57
2022-10-14T22:28:55.975Z,4.77
2022-10-14T22:33:57.192Z,5.20
2022-10-14T22:38:59.891Z,3.25
2022-10-14T22:44:00.983Z,2.97
2022-10-14T22:49:02.402Z,2.20
2022-10-14T22:54:03.541Z,2.00
2022-10-14T22:59:10.350Z,1.98
2022-10-14T23:04:11.604Z,7.40
2022-10-14T23:09:12.445Z,2.00
2022-10-14T23:14:13.169Z,1.95
2022-10-14T23:19:14.338Z,1.92
2022-10-14T23:24:15.095Z,2.20
2022-10-14T23:29:15.885Z,1.70
2022-10-14T23:34:16.691Z,2.12
2022-10-14T23:39:17.545Z,1.60
2022-10-14T23:44:18.274Z,1.40
2022-10-14T23:49:25.992Z,1.33
2022-10-14T23:54:27.695Z,1.10
2022-10-14T23:59:28.482Z,1.00
